Watt, Texas
Current Conditions -  °F | °C
As of 12:51 AM on Wednesday 26 Nov 2014 (Local Time) from KACT Reporting Station
Clear Clear  
Wind Chill: 36°   Ceiling: Unl
Heat Index: 41°   Visibility: 10mi
Dew Point: 34°   Wind: 8mph
Humidity: 76%   Direction: 220°SW
Pressure: 30.14"   Gusts: NA
Location:  31.5521°N, 96.8628°W
Report Text: KACT 260651Z 22007KT 10SM CLR 05/01 A3014 RMK AO2 SLP205 T00500011
Loading
Personal Weather Stations






























Interactive Weather Map New forecast layout! Learn more

10-Day Weather Forecast

Advertisements
Track Severe Weather on mobile